Time;durP1;ratioP1;P1;durP2;ratioP2;P2;SDS_P1;SDS_P2;PMS_P1;PMS_P2;Temp;Humidity;BMP_temperature;BMP_pressure;BME280_temperature;BME280_humidity;BME280_pressure;Samples;Min_cycle;Max_cycle;Signal;HPM_P1;HPM_P2
2021/06/25 00:00:10;;;;;;;14.23;6.80;;;;;;;;;;5011317;28;20030;-74
2021/06/25 00:02:36;;;;;;;15.13;6.57;;;;;;;;;;5012015;28;20034;-74
2021/06/25 00:05:02;;;;;;;13.50;6.43;;;;;;;;;;5012457;28;20379;-74
2021/06/25 00:07:27;;;;;;;14.37;6.57;;;;;;;;;;5012265;28;20029;-74
2021/06/25 00:09:52;;;;;;;15.90;6.97;;;;;;;;;;5012081;28;20386;-74
2021/06/25 00:12:18;;;;;;;16.97;7.27;;;;;;;;;;5011903;28;20100;-74
2021/06/25 00:14:43;;;;;;;13.87;6.77;;;;;;;;;;5011745;28;20156;-74
2021/06/25 00:17:08;;;;;;;16.73;7.50;;;;;;;;;;5012543;28;20389;-74
2021/06/25 00:19:34;;;;;;;15.37;6.87;;;;;;;;;;5012087;28;20022;-73
2021/06/25 00:21:59;;;;;;;14.63;7.03;;;;;;;;;;5011532;28;20044;-73
2021/06/25 00:24:25;;;;;;;12.60;7.13;;;;;;;;;;5011965;28;20026;-74
2021/06/25 00:26:50;;;;;;;15.97;7.73;;;;;;;;;;5011162;28;20034;-74
2021/06/25 00:29:16;;;;;;;14.53;7.13;;;;;;;;;;5011712;28;20109;-74
2021/06/25 00:31:41;;;;;;;14.33;7.33;;;;;;;;;;5011742;28;20096;-74
2021/06/25 00:34:07;;;;;;;13.80;7.07;;;;;;;;;;5011498;28;20040;-74
2021/06/25 00:36:32;;;;;;;17.47;7.53;;;;;;;;;;5012126;28;20053;-74
2021/06/25 00:38:57;;;;;;;15.43;7.57;;;;;;;;;;5011566;28;20041;-74
2021/06/25 00:41:23;;;;;;;14.33;7.17;;;;;;;;;;5011803;28;20026;-74
2021/06/25 00:43:48;;;;;;;15.93;7.33;;;;;;;;;;5011459;28;20109;-74
2021/06/25 00:46:14;;;;;;;14.70;7.80;;;;;;;;;;5011686;28;20026;-73
2021/06/25 00:48:39;;;;;;;17.80;7.73;;;;;;;;;;5011479;28;20026;-74
2021/06/25 00:51:04;;;;;;;17.43;7.77;;;;;;;;;;5011938;28;20057;-74
2021/06/25 00:53:30;;;;;;;15.13;7.90;;;;;;;;;;5011418;28;20045;-74
2021/06/25 00:55:55;;;;;;;19.33;8.03;;;;;;;;;;5016517;28;20105;-74
2021/06/25 00:58:21;;;;;;;19.87;7.93;;;;;;;;;;5013849;28;20036;-74
2021/06/25 01:00:46;;;;;;;16.63;7.90;;;;;;;;;;5011450;28;20045;-74
2021/06/25 01:03:13;;;;;;;17.00;8.77;;;;;;;;;;5014838;28;20029;-74
2021/06/25 01:05:38;;;;;;;16.60;8.43;;;;;;;;;;5015640;28;20026;-74
2021/06/25 01:08:04;;;;;;;16.10;7.70;;;;;;;;;;5014898;28;20034;-74
2021/06/25 01:10:30;;;;;;;14.47;7.33;;;;;;;;;;5014934;28;20109;-74
2021/06/25 01:12:55;;;;;;;13.97;7.10;;;;;;;;;;5015121;28;20085;-74
2021/06/25 01:15:21;;;;;;;17.40;7.37;;;;;;;;;;5014915;28;20037;-74
2021/06/25 01:17:46;;;;;;;15.73;7.23;;;;;;;;;;5014814;28;20076;-74
2021/06/25 01:20:14;;;;;;;16.23;7.27;;;;;;;;;;5014804;28;20092;-74
2021/06/25 01:22:43;;;;;;;17.67;8.07;;;;;;;;;;5013911;28;20029;-74
2021/06/25 01:25:13;;;;;;;18.73;9.20;;;;;;;;;;5014238;28;20076;-74
2021/06/25 01:27:39;;;;;;;20.27;9.03;;;;;;;;;;5014829;28;20084;-74
2021/06/25 01:30:08;;;;;;;20.53;9.50;;;;;;;;;;5014645;28;20419;-74
2021/06/25 01:32:34;;;;;;;18.20;8.30;;;;;;;;;;5014599;28;20037;-73
2021/06/25 01:35:01;;;;;;;19.73;7.47;;;;;;;;;;5014332;28;20053;-73
2021/06/25 01:37:27;;;;;;;22.50;8.83;;;;;;;;;;5014060;28;20037;-73
2021/06/25 01:39:52;;;;;;;18.73;8.30;;;;;;;;;;5013992;28;20025;-73
2021/06/25 01:42:18;;;;;;;19.00;9.07;;;;;;;;;;5013991;28;20034;-73
2021/06/25 01:44:44;;;;;;;18.30;9.10;;;;;;;;;;5014686;28;20062;-73
2021/06/25 01:47:09;;;;;;;21.30;10.00;;;;;;;;;;5013634;28;20068;-73
2021/06/25 01:49:36;;;;;;;19.77;9.40;;;;;;;;;;5013961;28;20128;-74
2021/06/25 01:52:02;;;;;;;19.80;9.10;;;;;;;;;;5013931;28;20071;-74
2021/06/25 01:54:27;;;;;;;17.67;8.83;;;;;;;;;;5013423;28;20423;-74
2021/06/25 01:56:52;;;;;;;21.77;8.93;;;;;;;;;;5019534;28;20026;-74
2021/06/25 01:59:18;;;;;;;17.77;8.30;;;;;;;;;;5013323;28;20036;-74
2021/06/25 02:01:43;;;;;;;17.53;7.60;;;;;;;;;;5005037;28;20060;-74
2021/06/25 02:04:08;;;;;;;16.47;7.93;;;;;;;;;;5014140;28;20021;-70
2021/06/25 02:06:34;;;;;;;14.20;7.77;;;;;;;;;;5013842;28;20036;-70
2021/06/25 02:09:01;;;;;;;15.13;7.63;;;;;;;;;;5014001;28;20034;-74
2021/06/25 02:11:26;;;;;;;14.07;7.47;;;;;;;;;;5012734;28;20018;-74
2021/06/25 02:13:51;;;;;;;15.73;8.17;;;;;;;;;;5013302;28;20096;-74
2021/06/25 02:16:17;;;;;;;15.97;7.23;;;;;;;;;;5014434;28;20066;-74
2021/06/25 02:18:42;;;;;;;16.03;7.57;;;;;;;;;;5013561;28;20037;-74
2021/06/25 02:21:07;;;;;;;15.33;8.17;;;;;;;;;;5012682;28;20075;-74
2021/06/25 02:23:33;;;;;;;15.27;7.50;;;;;;;;;;5012585;28;20481;-74
2021/06/25 02:25:58;;;;;;;15.27;7.17;;;;;;;;;;5014090;28;20026;-74
2021/06/25 02:28:23;;;;;;;15.87;8.03;;;;;;;;;;5012949;28;20033;-74
2021/06/25 02:30:49;;;;;;;14.83;8.13;;;;;;;;;;5013427;28;20036;-74
2021/06/25 02:33:14;;;;;;;15.60;7.80;;;;;;;;;;5013299;28;20030;-74
2021/06/25 02:35:39;;;;;;;18.63;7.73;;;;;;;;;;5013308;28;20058;-74
2021/06/25 02:38:05;;;;;;;15.70;7.77;;;;;;;;;;5013419;28;20390;-74
2021/06/25 02:40:30;;;;;;;20.40;8.17;;;;;;;;;;5012914;28;20462;-74
2021/06/25 02:42:55;;;;;;;20.20;7.97;;;;;;;;;;5012886;28;20124;-74
2021/06/25 02:45:21;;;;;;;18.07;8.03;;;;;;;;;;5013108;28;20025;-74
2021/06/25 02:47:46;;;;;;;15.63;7.30;;;;;;;;;;5013540;28;20437;-74
2021/06/25 02:50:12;;;;;;;20.67;8.33;;;;;;;;;;5013881;28;20022;-74
2021/06/25 02:52:39;;;;;;;14.77;7.73;;;;;;;;;;5012688;28;20504;-74
2021/06/25 02:55:05;;;;;;;16.97;7.30;;;;;;;;;;5014898;28;20442;-74
2021/06/25 02:57:30;;;;;;;17.87;7.80;;;;;;;;;;5020551;28;20022;-74
2021/06/25 02:59:56;;;;;;;16.53;7.83;;;;;;;;;;5012919;28;20041;-74
2021/06/25 03:02:21;;;;;;;17.87;8.07;;;;;;;;;;5012602;28;20079;-74
2021/06/25 03:04:46;;;;;;;16.50;7.93;;;;;;;;;;5012797;28;20044;-74
2021/06/25 03:07:12;;;;;;;15.43;7.57;;;;;;;;;;5012972;28;20040;-74
2021/06/25 03:09:37;;;;;;;18.83;8.40;;;;;;;;;;5012351;28;20026;-74
2021/06/25 03:12:03;;;;;;;17.23;8.10;;;;;;;;;;5012108;28;20104;-74
2021/06/25 03:14:28;;;;;;;18.83;8.37;;;;;;;;;;5012861;28;20077;-74
2021/06/25 03:16:54;;;;;;;14.07;8.13;;;;;;;;;;5012607;28;20026;-74
2021/06/25 03:19:19;;;;;;;18.30;7.83;;;;;;;;;;5012536;28;20036;-73
2021/06/25 03:21:44;;;;;;;19.50;8.03;;;;;;;;;;5012299;28;20034;-73
2021/06/25 03:24:10;;;;;;;17.00;7.97;;;;;;;;;;5011890;28;20092;-73
2021/06/25 03:26:35;;;;;;;19.77;8.10;;;;;;;;;;5012533;28;20026;-73
2021/06/25 03:29:01;;;;;;;15.63;8.00;;;;;;;;;;5012031;28;20034;-73
2021/06/25 03:31:26;;;;;;;18.10;8.03;;;;;;;;;;5012223;28;20485;-73
2021/06/25 03:33:51;;;;;;;17.77;7.97;;;;;;;;;;5012489;28;20025;-73
2021/06/25 03:36:17;;;;;;;23.73;9.20;;;;;;;;;;5012881;28;20036;-73
2021/06/25 03:38:42;;;;;;;19.23;8.73;;;;;;;;;;5012400;28;20025;-73
2021/06/25 03:41:07;;;;;;;24.30;8.90;;;;;;;;;;5012442;28;20030;-73
2021/06/25 03:43:33;;;;;;;20.03;8.83;;;;;;;;;;5012189;28;20042;-73
2021/06/25 03:45:59;;;;;;;18.60;9.17;;;;;;;;;;5011224;28;20494;-73
2021/06/25 03:48:25;;;;;;;18.50;9.63;;;;;;;;;;5011944;28;20026;-73
2021/06/25 03:50:50;;;;;;;17.50;9.07;;;;;;;;;;5012630;28;20037;-74
2021/06/25 03:53:16;;;;;;;23.57;9.53;;;;;;;;;;5011841;28;20018;-74
2021/06/25 03:58:27;;;;;;;19.57;8.97;;;;;;;;;;4927890;29;20043;-74
2021/06/25 04:00:52;;;;;;;17.73;8.60;;;;;;;;;;4934734;29;20114;-74
2021/06/25 04:03:18;;;;;;;21.03;9.30;;;;;;;;;;4932342;29;20048;-74
2021/06/25 04:05:43;;;;;;;19.70;9.33;;;;;;;;;;4930830;29;20155;-74
2021/06/25 04:08:08;;;;;;;20.97;9.67;;;;;;;;;;4929149;29;20091;-72
2021/06/25 04:10:34;;;;;;;19.33;9.30;;;;;;;;;;4925555;29;20051;-73
2021/06/25 04:12:59;;;;;;;20.37;8.60;;;;;;;;;;4931935;29;20530;-73
2021/06/25 04:15:25;;;;;;;20.97;9.53;;;;;;;;;;4932134;29;20040;-73
2021/06/25 04:17:50;;;;;;;21.57;9.47;;;;;;;;;;4931407;29;20027;-73
2021/06/25 04:20:17;;;;;;;19.23;8.13;;;;;;;;;;4919332;29;20028;-73
2021/06/25 04:22:42;;;;;;;18.07;9.37;;;;;;;;;;4920231;29;20035;-73
2021/06/25 04:25:08;;;;;;;22.97;9.20;;;;;;;;;;4916733;29;20042;-73
2021/06/25 04:27:34;;;;;;;17.07;7.70;;;;;;;;;;4930174;29;20028;-73
2021/06/25 04:29:59;;;;;;;17.97;8.70;;;;;;;;;;4931662;29;20754;-73
2021/06/25 04:32:24;;;;;;;16.40;8.93;;;;;;;;;;4927928;29;20429;-68
2021/06/25 04:34:50;;;;;;;18.30;8.83;;;;;;;;;;4941427;28;20399;-68
2021/06/25 04:37:15;;;;;;;19.67;8.33;;;;;;;;;;5012792;28;20104;-68
2021/06/25 04:39:40;;;;;;;16.20;8.50;;;;;;;;;;5015461;28;20037;-68
2021/06/25 04:42:06;;;;;;;19.67;8.20;;;;;;;;;;5015122;28;20038;-68
2021/06/25 04:44:31;;;;;;;15.87;8.00;;;;;;;;;;5015619;28;20030;-68
2021/06/25 04:46:57;;;;;;;16.07;7.80;;;;;;;;;;5014588;28;20463;-68
2021/06/25 04:49:22;;;;;;;16.53;7.30;;;;;;;;;;5015002;28;20399;-68
2021/06/25 04:51:47;;;;;;;15.47;7.57;;;;;;;;;;5015075;28;20108;-68
2021/06/25 04:54:13;;;;;;;15.60;7.30;;;;;;;;;;5012890;28;20025;-68
2021/06/25 04:56:38;;;;;;;15.07;7.60;;;;;;;;;;5015972;28;20029;-69
2021/06/25 04:59:03;;;;;;;16.10;7.60;;;;;;;;;;5015251;28;20459;-69
2021/06/25 05:01:29;;;;;;;14.23;7.40;;;;;;;;;;5015144;28;20484;-69
2021/06/25 05:03:54;;;;;;;14.83;6.47;;;;;;;;;;5015529;28;20065;-70
2021/06/25 05:06:19;;;;;;;14.60;7.37;;;;;;;;;;5015296;28;20030;-68
2021/06/25 05:08:45;;;;;;;15.10;7.63;;;;;;;;;;4996711;28;20034;-70
2021/06/25 05:11:10;;;;;;;17.57;8.60;;;;;;;;;;5014935;28;20028;-69
2021/06/25 05:13:35;;;;;;;15.23;7.13;;;;;;;;;;5014025;28;20191;-69
2021/06/25 05:16:01;;;;;;;15.27;7.70;;;;;;;;;;5014416;28;20018;-69
2021/06/25 05:18:26;;;;;;;16.63;7.57;;;;;;;;;;5014629;28;20088;-69
2021/06/25 05:20:52;;;;;;;16.10;7.93;;;;;;;;;;5014998;28;20067;-69
2021/06/25 05:23:17;;;;;;;19.03;8.10;;;;;;;;;;5014861;28;20045;-70
2021/06/25 05:25:43;;;;;;;17.20;7.33;;;;;;;;;;5015221;28;20076;-70
2021/06/25 05:28:09;;;;;;;17.93;7.30;;;;;;;;;;5014922;28;20374;-69
2021/06/25 05:30:35;;;;;;;12.80;7.07;;;;;;;;;;5015242;28;20127;-69
2021/06/25 05:33:01;;;;;;;14.33;7.20;;;;;;;;;;5014881;28;20021;-69
2021/06/25 05:35:32;;;;;;;20.27;8.40;;;;;;;;;;5015096;28;20105;-69
2021/06/25 05:38:01;;;;;;;11.98;6.90;;;;;;;;;;5014722;28;20034;-70
2021/06/25 05:40:27;;;;;;;14.37;6.80;;;;;;;;;;5002028;28;20022;-70
2021/06/25 05:42:52;;;;;;;19.40;7.33;;;;;;;;;;5014856;28;20033;-70
2021/06/25 05:45:17;;;;;;;14.60;7.23;;;;;;;;;;5014941;28;20071;-70
2021/06/25 05:47:43;;;;;;;17.33;7.00;;;;;;;;;;5014188;28;20482;-70
2021/06/25 05:50:08;;;;;;;19.53;7.10;;;;;;;;;;5014856;28;20018;-70
2021/06/25 05:52:34;;;;;;;16.87;6.90;;;;;;;;;;5014231;28;20014;-70
2021/06/25 05:54:59;;;;;;;15.23;7.00;;;;;;;;;;5015721;28;20093;-70
2021/06/25 05:57:24;;;;;;;17.77;7.10;;;;;;;;;;5017972;28;20084;-70
2021/06/25 05:59:50;;;;;;;12.93;6.40;;;;;;;;;;5014792;28;20064;-70
2021/06/25 06:02:15;;;;;;;16.60;6.60;;;;;;;;;;5013929;28;20038;-70
2021/06/25 06:04:40;;;;;;;14.57;6.10;;;;;;;;;;5014392;28;20022;-70
2021/06/25 06:07:06;;;;;;;13.40;6.73;;;;;;;;;;5014542;28;20109;-70
2021/06/25 06:09:32;;;;;;;14.43;6.17;;;;;;;;;;5014101;28;20026;-70
2021/06/25 06:11:58;;;;;;;13.27;5.93;;;;;;;;;;5014305;28;20018;-70
2021/06/25 06:14:23;;;;;;;12.93;6.30;;;;;;;;;;5014559;28;20375;-70
2021/06/25 06:16:49;;;;;;;13.03;5.90;;;;;;;;;;5014279;28;20090;-70
2021/06/25 06:19:16;;;;;;;17.80;7.00;;;;;;;;;;5013654;28;20037;-70
2021/06/25 06:32:47;;;;;;;10.70;5.20;;;;;;;;;;5014877;28;20497;-69
2021/06/25 06:35:12;;;;;;;11.55;5.47;;;;;;;;;;5016044;28;20577;-69
2021/06/25 06:37:38;;;;;;;13.40;5.38;;;;;;;;;;5015265;28;20093;-69
2021/06/25 06:40:03;;;;;;;10.68;5.40;;;;;;;;;;5014769;28;20533;-69
2021/06/25 06:42:29;;;;;;;9.20;5.25;;;;;;;;;;5014720;28;20483;-68
2021/06/25 06:44:54;;;;;;;8.02;4.75;;;;;;;;;;5014659;28;20434;-68
2021/06/25 06:47:19;;;;;;;9.70;5.43;;;;;;;;;;5013861;28;20029;-68
2021/06/25 06:49:45;;;;;;;10.20;4.80;;;;;;;;;;5013404;28;20367;-68
2021/06/25 06:52:10;;;;;;;9.90;5.20;;;;;;;;;;5013596;28;20087;-69
2021/06/25 06:54:36;;;;;;;9.27;4.90;;;;;;;;;;5012206;28;20427;-69
2021/06/25 06:57:01;;;;;;;9.57;4.72;;;;;;;;;;5017528;28;20013;-69
2021/06/25 06:59:27;;;;;;;9.75;4.70;;;;;;;;;;5000242;28;20034;-69
2021/06/25 07:01:52;;;;;;;11.27;5.50;;;;;;;;;;5013354;28;20463;-69
2021/06/25 07:04:17;;;;;;;9.57;5.35;;;;;;;;;;5013010;28;20033;-68
2021/06/25 07:06:42;;;;;;;11.48;5.55;;;;;;;;;;5013188;28;20030;-69
2021/06/25 07:09:08;;;;;;;9.00;5.25;;;;;;;;;;5012969;28;20033;-67
2021/06/25 07:11:33;;;;;;;10.20;5.25;;;;;;;;;;5013126;28;20034;-69
2021/06/25 07:13:59;;;;;;;10.15;5.05;;;;;;;;;;5012487;28;20072;-69
2021/06/25 07:16:24;;;;;;;9.57;5.10;;;;;;;;;;5013458;28;20025;-67
2021/06/25 07:18:49;;;;;;;9.57;4.88;;;;;;;;;;5012669;28;20022;-68
2021/06/25 07:21:15;;;;;;;11.02;5.18;;;;;;;;;;5012749;28;20014;-68
2021/06/25 07:23:41;;;;;;;9.25;5.45;;;;;;;;;;5012830;28;20030;-69
2021/06/25 07:26:06;;;;;;;8.88;5.20;;;;;;;;;;5013643;28;20037;-69
2021/06/25 07:28:31;;;;;;;11.68;5.97;;;;;;;;;;5012701;28;20111;-69
2021/06/25 07:30:57;;;;;;;10.70;5.75;;;;;;;;;;5012736;28;20063;-69
2021/06/25 07:33:22;;;;;;;10.23;6.00;;;;;;;;;;5012358;28;20026;-69
2021/06/25 07:35:47;;;;;;;11.80;5.68;;;;;;;;;;5012991;28;20022;-69
2021/06/25 07:38:13;;;;;;;9.25;5.43;;;;;;;;;;5012380;28;20394;-69
2021/06/25 07:40:38;;;;;;;11.55;4.97;;;;;;;;;;5012547;28;20026;-69
2021/06/25 07:43:03;;;;;;;10.43;5.40;;;;;;;;;;5012305;28;20104;-69
2021/06/25 07:45:29;;;;;;;9.60;5.55;;;;;;;;;;5012570;28;20037;-68
2021/06/25 07:47:54;;;;;;;8.63;5.57;;;;;;;;;;5012843;28;20091;-69
2021/06/25 07:50:20;;;;;;;9.30;5.85;;;;;;;;;;5012460;28;20049;-68
2021/06/25 07:52:45;;;;;;;10.93;6.65;;;;;;;;;;5012426;28;20061;-68
2021/06/25 07:55:12;;;;;;;11.80;6.18;;;;;;;;;;5015453;28;20064;-68
2021/06/25 07:57:38;;;;;;;10.55;6.40;;;;;;;;;;5014064;28;20060;-68
2021/06/25 08:00:04;;;;;;;14.13;7.05;;;;;;;;;;5012931;28;20442;-68
2021/06/25 08:02:30;;;;;;;13.05;7.40;;;;;;;;;;5012009;28;20456;-68
2021/06/25 08:04:55;;;;;;;12.60;6.80;;;;;;;;;;5012743;28;20060;-68
2021/06/25 08:07:20;;;;;;;10.85;6.47;;;;;;;;;;5011911;28;20030;-68
2021/06/25 08:09:45;;;;;;;10.93;6.65;;;;;;;;;;5012581;28;20249;-68
2021/06/25 08:12:12;;;;;;;11.82;6.63;;;;;;;;;;5011743;28;20045;-68
2021/06/25 08:14:38;;;;;;;10.45;6.20;;;;;;;;;;5012622;28;20485;-68
2021/06/25 08:17:04;;;;;;;13.88;6.10;;;;;;;;;;5012258;28;20022;-68
2021/06/25 08:19:30;;;;;;;10.57;6.15;;;;;;;;;;5012388;28;20034;-68
2021/06/25 08:21:55;;;;;;;8.05;5.10;;;;;;;;;;5012053;28;20030;-68
2021/06/25 08:24:20;;;;;;;9.63;6.03;;;;;;;;;;5013726;28;20467;-68
2021/06/25 08:26:46;;;;;;;9.90;5.82;;;;;;;;;;5012277;28;20026;-68
2021/06/25 08:29:11;;;;;;;11.88;6.30;;;;;;;;;;5011810;28;20041;-68
2021/06/25 08:31:36;;;;;;;10.05;6.18;;;;;;;;;;5012321;28;20482;-68
2021/06/25 08:34:02;;;;;;;10.48;5.45;;;;;;;;;;5012210;28;20025;-68
2021/06/25 08:36:28;;;;;;;8.88;5.50;;;;;;;;;;5011964;28;20471;-68
2021/06/25 08:38:54;;;;;;;8.65;5.47;;;;;;;;;;5012037;28;20037;-68
2021/06/25 08:41:19;;;;;;;11.30;5.35;;;;;;;;;;5012619;28;20018;-68
2021/06/25 08:43:44;;;;;;;10.30;5.35;;;;;;;;;;5012179;28;20022;-68
2021/06/25 08:46:10;;;;;;;9.38;5.13;;;;;;;;;;5012448;28;20025;-68
2021/06/25 08:48:36;;;;;;;10.95;5.28;;;;;;;;;;5011556;28;20526;-69
2021/06/25 08:51:01;;;;;;;8.40;5.30;;;;;;;;;;5012315;28;20025;-69
2021/06/25 08:53:27;;;;;;;10.07;5.60;;;;;;;;;;5011889;28;20459;-68
2021/06/25 08:55:52;;;;;;;8.98;5.10;;;;;;;;;;5016720;28;20065;-69
2021/06/25 08:58:18;;;;;;;8.75;5.18;;;;;;;;;;5012147;28;20079;-69
2021/06/25 09:00:44;;;;;;;10.18;4.80;;;;;;;;;;5011871;28;20072;-69
2021/06/25 09:03:21;;;;;;;10.30;4.25;;;;;;;;;;5011975;28;20390;-69
2021/06/25 09:05:47;;;;;;;9.57;4.53;;;;;;;;;;5012608;28;20033;-69
2021/06/25 09:08:29;;;;;;;7.75;4.63;;;;;;;;;;4995009;28;20116;-69
2021/06/25 09:10:56;;;;;;;7.70;4.90;;;;;;;;;;4999705;28;20021;-69
2021/06/25 09:13:35;;;;;;;8.55;5.03;;;;;;;;;;5013149;28;20490;-69
2021/06/25 09:16:01;;;;;;;9.50;5.43;;;;;;;;;;5011683;28;20017;-69
2021/06/25 09:18:26;;;;;;;8.65;5.00;;;;;;;;;;5013088;28;20125;-69
2021/06/25 09:20:55;;;;;;;11.85;5.55;;;;;;;;;;5015551;28;20030;-69
2021/06/25 09:23:22;;;;;;;9.07;5.20;;;;;;;;;;5014991;28;20057;-69
2021/06/25 09:25:51;;;;;;;8.93;5.55;;;;;;;;;;5015283;28;20022;-69
2021/06/25 09:28:29;;;;;;;8.57;5.00;;;;;;;;;;5014854;28;20109;-69
2021/06/25 09:30:55;;;;;;;8.90;4.70;;;;;;;;;;5015058;28;20033;-69
2021/06/25 09:33:21;;;;;;;7.15;4.68;;;;;;;;;;5014783;28;20022;-69
2021/06/25 09:35:50;;;;;;;8.25;4.28;;;;;;;;;;5015299;28;20014;-69
2021/06/25 09:38:28;;;;;;;8.50;4.30;;;;;;;;;;5014798;28;20037;-69
2021/06/25 09:40:54;;;;;;;8.95;4.75;;;;;;;;;;5014766;28;20022;-69
2021/06/25 09:43:19;;;;;;;6.88;4.75;;;;;;;;;;5014772;28;20033;-69
2021/06/25 09:45:48;;;;;;;7.63;5.03;;;;;;;;;;5015422;28;20076;-69
2021/06/25 09:48:13;;;;;;;9.02;4.57;;;;;;;;;;5014359;28;20370;-69
2021/06/25 09:50:39;;;;;;;8.15;4.97;;;;;;;;;;5015311;28;20022;-69
2021/06/25 09:53:05;;;;;;;12.57;4.80;;;;;;;;;;5014535;28;20030;-69
2021/06/25 09:55:55;;;;;;;9.25;5.45;;;;;;;;;;5019241;28;20458;-69
2021/06/25 10:01:24;;;;;;;7.13;4.50;;;;;;;;;;4991832;28;20112;-69
2021/06/25 10:03:57;;;;;;;6.43;4.40;;;;;;;;;;5014234;28;20025;-69
2021/06/25 10:06:24;;;;;;;7.95;4.00;;;;;;;;;;5014391;28;20040;-69
2021/06/25 10:08:49;;;;;;;7.45;4.10;;;;;;;;;;5014260;28;20513;-69
2021/06/25 10:11:17;;;;;;;7.00;3.08;;;;;;;;;;5014542;28;20038;-70
2021/06/25 10:13:45;;;;;;;5.32;2.80;;;;;;;;;;5013843;28;20046;-70
2021/06/25 10:16:10;;;;;;;5.07;2.75;;;;;;;;;;5014429;28;20022;-70
2021/06/25 10:18:43;;;;;;;4.43;2.47;;;;;;;;;;5013766;28;20036;-70
2021/06/25 10:21:12;;;;;;;5.40;2.80;;;;;;;;;;5014239;28;20060;-70
2021/06/25 10:23:38;;;;;;;5.93;2.78;;;;;;;;;;5013690;28;20022;-70
2021/06/25 10:26:07;;;;;;;6.03;2.85;;;;;;;;;;5013846;28;20088;-69
2021/06/25 10:28:36;;;;;;;4.70;2.75;;;;;;;;;;5008296;28;20038;-69
2021/06/25 10:31:01;;;;;;;5.13;2.88;;;;;;;;;;5006681;28;20022;-69
2021/06/25 10:33:27;;;;;;;6.55;3.10;;;;;;;;;;5012983;28;20018;-69
2021/06/25 10:35:52;;;;;;;5.18;2.80;;;;;;;;;;5014055;28;20033;-69
2021/06/25 10:38:19;;;;;;;4.40;2.40;;;;;;;;;;5013362;28;20034;-70
2021/06/25 10:40:57;;;;;;;5.40;3.25;;;;;;;;;;5013871;28;20105;-69
2021/06/25 10:43:59;;;;;;;3.58;2.17;;;;;;;;;;5013168;28;20066;-70
2021/06/25 10:46:33;;;;;;;3.83;2.35;;;;;;;;;;4933050;29;20067;-69
2021/06/25 10:49:03;;;;;;;4.70;2.53;;;;;;;;;;4929352;29;20047;-70
2021/06/25 10:51:32;;;;;;;4.22;2.50;;;;;;;;;;4925758;29;20051;-69
2021/06/25 10:54:09;;;;;;;4.35;2.22;;;;;;;;;;4929065;29;20123;-69
2021/06/25 10:56:34;;;;;;;9.40;3.20;;;;;;;;;;4934183;29;20031;-70
2021/06/25 10:59:27;;;;;;;4.72;2.40;;;;;;;;;;4925163;29;20602;-70
2021/06/25 11:01:59;;;;;;;4.90;2.20;;;;;;;;;;4924406;29;20074;-69
2021/06/25 11:04:54;;;;;;;3.53;1.90;;;;;;;;;;4925363;29;20338;-69
2021/06/25 11:07:38;;;;;;;6.20;2.72;;;;;;;;;;4882452;29;20510;-69
2021/06/25 11:10:04;;;;;;;4.70;2.22;;;;;;;;;;4923976;29;20028;-70
2021/06/25 11:12:31;;;;;;;3.75;2.20;;;;;;;;;;4924063;29;20153;-70
2021/06/25 11:15:19;;;;;;;5.78;2.13;;;;;;;;;;4923338;29;20043;-70
2021/06/25 11:17:54;;;;;;;5.03;2.55;;;;;;;;;;4925018;29;20058;-68
2021/06/25 11:20:24;;;;;;;4.10;2.40;;;;;;;;;;4962410;28;20108;-68
2021/06/25 11:22:54;;;;;;;4.38;2.58;;;;;;;;;;5012385;28;20032;-68
2021/06/25 11:25:40;;;;;;;5.22;2.60;;;;;;;;;;5013267;28;20088;-68
2021/06/25 11:28:18;;;;;;;4.97;2.40;;;;;;;;;;5011574;28;20026;-69
2021/06/25 11:31:10;;;;;;;4.07;1.90;;;;;;;;;;5012102;28;20026;-68
2021/06/25 11:33:48;;;;;;;4.57;2.25;;;;;;;;;;4980679;28;20029;-68
2021/06/25 11:36:24;;;;;;;5.85;2.78;;;;;;;;;;5012968;28;20046;-68
2021/06/25 11:39:04;;;;;;;6.10;3.15;;;;;;;;;;5011802;28;20029;-68
2021/06/25 11:41:32;;;;;;;4.85;2.65;;;;;;;;;;5011942;28;20485;-68
2021/06/25 11:43:57;;;;;;;5.15;3.10;;;;;;;;;;5012468;28;20121;-69
2021/06/25 11:46:23;;;;;;;4.93;2.97;;;;;;;;;;5012067;28;20070;-69
2021/06/25 11:48:50;;;;;;;4.57;2.45;;;;;;;;;;5012254;28;20021;-69
2021/06/25 11:51:17;;;;;;;4.88;2.60;;;;;;;;;;5012370;28;20022;-69
2021/06/25 11:53:46;;;;;;;5.63;2.30;;;;;;;;;;5012338;28;20032;-69
2021/06/25 11:56:23;;;;;;;4.55;2.33;;;;;;;;;;5019585;28;20029;-69
2021/06/25 11:59:15;;;;;;;5.38;2.35;;;;;;;;;;5012417;28;20105;-69
2021/06/25 12:01:48;;;;;;;6.22;2.67;;;;;;;;;;5009111;28;20084;-69
2021/06/25 12:04:13;;;;;;;4.53;2.70;;;;;;;;;;5012652;28;20091;-69
2021/06/25 12:06:49;;;;;;;5.85;2.80;;;;;;;;;;5012878;28;20037;-69
2021/06/25 12:09:14;;;;;;;4.00;2.30;;;;;;;;;;5012354;28;20036;-69
2021/06/25 12:11:39;;;;;;;4.43;2.38;;;;;;;;;;5012502;28;20014;-69
2021/06/25 12:14:07;;;;;;;4.05;2.22;;;;;;;;;;5012149;28;20050;-70
2021/06/25 12:16:33;;;;;;;4.05;2.30;;;;;;;;;;5013059;28;20041;-70
2021/06/25 12:18:59;;;;;;;7.40;2.55;;;;;;;;;;5012559;28;20056;-69
2021/06/25 12:21:24;;;;;;;6.70;2.80;;;;;;;;;;5012189;28;20079;-69
2021/06/25 12:23:55;;;;;;;4.78;2.55;;;;;;;;;;5012489;28;20029;-69
2021/06/25 12:26:22;;;;;;;5.00;2.58;;;;;;;;;;5012828;28;20494;-69
2021/06/25 12:28:49;;;;;;;6.35;2.40;;;;;;;;;;5012202;28;20038;-69
2021/06/25 12:31:19;;;;;;;4.72;2.33;;;;;;;;;;5012389;28;20014;-69
2021/06/25 12:33:44;;;;;;;4.65;2.67;;;;;;;;;;5012169;28;20049;-69
2021/06/25 12:36:16;;;;;;;5.43;2.67;;;;;;;;;;5012569;28;20463;-69
2021/06/25 12:38:42;;;;;;;6.40;2.53;;;;;;;;;;5011772;28;20030;-68
2021/06/25 12:41:09;;;;;;;5.45;2.00;;;;;;;;;;5010934;28;20080;-68
2021/06/25 12:43:36;;;;;;;4.32;2.22;;;;;;;;;;5006296;28;20045;-69
2021/06/25 12:46:07;;;;;;;6.10;2.25;;;;;;;;;;5012122;28;20033;-69
2021/06/25 12:48:33;;;;;;;4.10;2.20;;;;;;;;;;5011750;28;20030;-70
2021/06/25 12:51:00;;;;;;;3.20;1.50;;;;;;;;;;5012162;28;20414;-69
2021/06/25 12:53:29;;;;;;;2.83;1.58;;;;;;;;;;5013864;28;20096;-69
2021/06/25 12:55:56;;;;;;;4.97;1.48;;;;;;;;;;5023975;28;20382;-69
2021/06/25 12:58:22;;;;;;;3.03;1.67;;;;;;;;;;5016076;28;20113;-69
2021/06/25 13:00:51;;;;;;;4.50;2.00;;;;;;;;;;5015692;28;20495;-69
2021/06/25 13:03:16;;;;;;;3.95;1.95;;;;;;;;;;5015829;28;20092;-69
2021/06/25 13:05:45;;;;;;;3.85;1.80;;;;;;;;;;5015820;28;20026;-69
2021/06/25 13:08:18;;;;;;;3.60;1.90;;;;;;;;;;5016058;28;20033;-69
2021/06/25 13:10:44;;;;;;;3.72;1.70;;;;;;;;;;5015733;28;20075;-69
2021/06/25 13:13:20;;;;;;;4.85;1.50;;;;;;;;;;5015096;28;20038;-69
2021/06/25 13:15:50;;;;;;;2.83;1.50;;;;;;;;;;5015752;28;20028;-69
2021/06/25 13:18:18;;;;;;;2.97;1.70;;;;;;;;;;5014618;28;20022;-70
2021/06/25 13:21:03;;;;;;;4.07;1.80;;;;;;;;;;5014485;28;20076;-70
2021/06/25 13:23:28;;;;;;;4.13;2.08;;;;;;;;;;5008813;28;20433;-69
2021/06/25 13:26:07;;;;;;;3.90;2.00;;;;;;;;;;5015264;28;20092;-70
2021/06/25 13:28:32;;;;;;;3.38;1.52;;;;;;;;;;5013849;28;20018;-70
2021/06/25 13:31:04;;;;;;;3.35;1.50;;;;;;;;;;5015305;28;20383;-71
2021/06/25 13:33:38;;;;;;;3.65;1.60;;;;;;;;;;5014240;28;20022;-71
2021/06/25 13:36:05;;;;;;;3.38;1.63;;;;;;;;;;5015478;28;20474;-71
2021/06/25 13:38:31;;;;;;;3.20;1.52;;;;;;;;;;5014624;28;20033;-72
2021/06/25 13:41:02;;;;;;;4.43;1.55;;;;;;;;;;5015088;28;20467;-72
2021/06/25 13:43:36;;;;;;;3.10;1.73;;;;;;;;;;5013625;28;20034;-72
2021/06/25 13:46:20;;;;;;;4.40;1.80;;;;;;;;;;5014690;28;20037;-71
2021/06/25 13:48:46;;;;;;;3.20;1.58;;;;;;;;;;5014316;28;20105;-71
2021/06/25 13:51:12;;;;;;;3.20;1.60;;;;;;;;;;5014106;28;20093;-72
2021/06/25 13:53:42;;;;;;;3.85;1.80;;;;;;;;;;5013878;28;20369;-72
2021/06/25 13:56:09;;;;;;;3.50;1.60;;;;;;;;;;5019200;28;20025;-72
2021/06/25 13:58:53;;;;;;;2.88;1.40;;;;;;;;;;5014333;28;20112;-71
2021/06/25 14:01:20;;;;;;;3.58;1.55;;;;;;;;;;5012952;28;20022;-71
2021/06/25 14:03:52;;;;;;;3.08;1.50;;;;;;;;;;5013523;28;20034;-70
2021/06/25 14:06:17;;;;;;;3.50;1.73;;;;;;;;;;5014690;28;20025;-71
2021/06/25 14:08:43;;;;;;;2.97;1.67;;;;;;;;;;5014372;28;20025;-71
2021/06/25 14:11:14;;;;;;;5.20;2.15;;;;;;;;;;5014932;28;20040;-70
2021/06/25 14:13:41;;;;;;;4.97;1.73;;;;;;;;;;5013903;28;20084;-70
2021/06/25 14:16:26;;;;;;;3.15;1.67;;;;;;;;;;5014439;28;20022;-73
2021/06/25 14:18:53;;;;;;;4.63;1.90;;;;;;;;;;5013706;28;20068;-73
2021/06/25 14:21:19;;;;;;;3.92;1.95;;;;;;;;;;5013587;28;20486;-73
2021/06/25 14:23:45;;;;;;;3.90;2.20;;;;;;;;;;5013718;28;20415;-72
2021/06/25 14:26:10;;;;;;;3.90;2.00;;;;;;;;;;5013628;28;20088;-72
2021/06/25 14:28:36;;;;;;;4.22;1.92;;;;;;;;;;5013557;28;20025;-71
2021/06/25 14:31:01;;;;;;;3.15;1.70;;;;;;;;;;5014082;28;20022;-70
2021/06/25 14:33:27;;;;;;;5.07;2.05;;;;;;;;;;5013632;28;20033;-70
2021/06/25 14:35:52;;;;;;;3.67;2.10;;;;;;;;;;5013953;28;20022;-70
2021/06/25 14:38:18;;;;;;;3.80;2.10;;;;;;;;;;5013694;28;20458;-70
2021/06/25 14:40:44;;;;;;;3.60;1.83;;;;;;;;;;5014504;28;20096;-70
2021/06/25 14:43:09;;;;;;;3.95;1.80;;;;;;;;;;5013356;28;20029;-70
2021/06/25 14:45:35;;;;;;;3.30;1.75;;;;;;;;;;5007659;28;20103;-70
2021/06/25 14:48:00;;;;;;;3.60;1.80;;;;;;;;;;5005998;28;20109;-70
2021/06/25 14:50:26;;;;;;;4.55;1.98;;;;;;;;;;5008518;28;20101;-71
2021/06/25 14:52:51;;;;;;;4.00;1.80;;;;;;;;;;5004193;28;20109;-71